sensor_id;sensor_type;location;lat;lon;timestamp;P1;durP1;ratioP1;P2;durP2;ratioP2
63370;SDS011;49504;48.336;14.472;2023-02-28T00:00:36;2.38;;;0.60;;
63370;SDS011;49504;48.336;14.472;2023-02-28T00:03:58;2.40;;;0.80;;
63370;SDS011;49504;48.336;14.472;2023-02-28T00:07:19;2.17;;;0.98;;
63370;SDS011;49504;48.336;14.472;2023-02-28T00:10:40;2.42;;;0.70;;
63370;SDS011;49504;48.336;14.472;2023-02-28T00:14:01;3.63;;;0.80;;
63370;SDS011;49504;48.336;14.472;2023-02-28T00:17:24;2.03;;;0.80;;
63370;SDS011;49504;48.336;14.472;2023-02-28T00:20:45;2.55;;;0.80;;
63370;SDS011;49504;48.336;14.472;2023-02-28T00:24:06;2.22;;;0.70;;
63370;SDS011;49504;48.336;14.472;2023-02-28T00:27:27;2.30;;;0.73;;
63370;SDS011;49504;48.336;14.472;2023-02-28T00:30:49;2.35;;;0.82;;
63370;SDS011;49504;48.336;14.472;2023-02-28T00:34:11;2.83;;;0.90;;
63370;SDS011;49504;48.336;14.472;2023-02-28T00:37:32;2.70;;;0.88;;
63370;SDS011;49504;48.336;14.472;2023-02-28T00:40:54;2.70;;;0.90;;
63370;SDS011;49504;48.336;14.472;2023-02-28T00:44:15;2.25;;;0.80;;
63370;SDS011;49504;48.336;14.472;2023-02-28T00:47:36;2.88;;;1.05;;
63370;SDS011;49504;48.336;14.472;2023-02-28T00:50:59;2.45;;;0.70;;
63370;SDS011;49504;48.336;14.472;2023-02-28T00:56:40;2.65;;;0.90;;
63370;SDS011;49504;48.336;14.472;2023-02-28T01:00:01;2.78;;;0.93;;
63370;SDS011;49504;48.336;14.472;2023-02-28T01:03:23;2.42;;;0.82;;
63370;SDS011;49504;48.336;14.472;2023-02-28T01:06:44;2.50;;;0.80;;
63370;SDS011;49504;48.336;14.472;2023-02-28T01:10:05;4.32;;;1.08;;
63370;SDS011;49504;48.336;14.472;2023-02-28T01:13:30;3.10;;;1.00;;
63370;SDS011;49504;48.336;14.472;2023-02-28T01:16:51;2.90;;;0.75;;
63370;SDS011;49504;48.336;14.472;2023-02-28T01:20:13;2.50;;;1.10;;
63370;SDS011;49504;48.336;14.472;2023-02-28T01:23:35;2.30;;;0.70;;
63370;SDS011;49504;48.336;14.472;2023-02-28T01:26:56;2.47;;;0.80;;
63370;SDS011;49504;48.336;14.472;2023-02-28T01:30:19;2.60;;;0.80;;
63370;SDS011;49504;48.336;14.472;2023-02-28T01:33:41;2.95;;;1.10;;
63370;SDS011;49504;48.336;14.472;2023-02-28T01:37:02;2.95;;;0.93;;
63370;SDS011;49504;48.336;14.472;2023-02-28T01:40:23;2.83;;;1.00;;
63370;SDS011;49504;48.336;14.472;2023-02-28T01:43:54;2.10;;;0.80;;
63370;SDS011;49504;48.336;14.472;2023-02-28T01:47:20;3.10;;;1.08;;
63370;SDS011;49504;48.336;14.472;2023-02-28T01:50:43;3.67;;;1.20;;
63370;SDS011;49504;48.336;14.472;2023-02-28T01:57:32;2.75;;;0.95;;
63370;SDS011;49504;48.336;14.472;2023-02-28T02:00:57;2.80;;;0.98;;
63370;SDS011;49504;48.336;14.472;2023-02-28T02:04:20;2.67;;;0.90;;
63370;SDS011;49504;48.336;14.472;2023-02-28T02:11:07;3.10;;;1.30;;
63370;SDS011;49504;48.336;14.472;2023-02-28T02:14:35;2.90;;;1.10;;
63370;SDS011;49504;48.336;14.472;2023-02-28T02:18:14;2.90;;;1.00;;
63370;SDS011;49504;48.336;14.472;2023-02-28T02:25:48;2.60;;;1.00;;
63370;SDS011;49504;48.336;14.472;2023-02-28T02:29:31;3.20;;;1.20;;
63370;SDS011;49504;48.336;14.472;2023-02-28T02:33:06;3.50;;;1.40;;
63370;SDS011;49504;48.336;14.472;2023-02-28T02:36:46;3.22;;;1.13;;
63370;SDS011;49504;48.336;14.472;2023-02-28T02:40:13;2.95;;;1.17;;
63370;SDS011;49504;48.336;14.472;2023-02-28T02:43:39;2.90;;;1.00;;
63370;SDS011;49504;48.336;14.472;2023-02-28T02:47:08;3.17;;;1.38;;
63370;SDS011;49504;48.336;14.472;2023-02-28T02:50:33;2.70;;;1.00;;
63370;SDS011;49504;48.336;14.472;2023-02-28T02:54:02;3.22;;;1.10;;
63370;SDS011;49504;48.336;14.472;2023-02-28T02:57:30;3.65;;;1.42;;
63370;SDS011;49504;48.336;14.472;2023-02-28T03:00:58;2.47;;;0.90;;
63370;SDS011;49504;48.336;14.472;2023-02-28T03:04:22;3.20;;;1.13;;
63370;SDS011;49504;48.336;14.472;2023-02-28T03:07:46;3.30;;;1.20;;
63370;SDS011;49504;48.336;14.472;2023-02-28T03:11:11;3.78;;;1.30;;
63370;SDS011;49504;48.336;14.472;2023-02-28T03:14:40;2.97;;;0.90;;
63370;SDS011;49504;48.336;14.472;2023-02-28T03:21:45;3.28;;;1.00;;
63370;SDS011;49504;48.336;14.472;2023-02-28T03:25:18;3.40;;;1.38;;
63370;SDS011;49504;48.336;14.472;2023-02-28T03:28:50;2.97;;;1.10;;
63370;SDS011;49504;48.336;14.472;2023-02-28T03:32:21;3.92;;;1.52;;
63370;SDS011;49504;48.336;14.472;2023-02-28T03:35:48;3.05;;;1.27;;
63370;SDS011;49504;48.336;14.472;2023-02-28T03:39:16;3.00;;;1.20;;
63370;SDS011;49504;48.336;14.472;2023-02-28T03:42:42;2.95;;;1.20;;
63370;SDS011;49504;48.336;14.472;2023-02-28T03:46:09;2.97;;;1.10;;
63370;SDS011;49504;48.336;14.472;2023-02-28T03:49:35;4.00;;;1.30;;
63370;SDS011;49504;48.336;14.472;2023-02-28T03:53:03;2.58;;;1.00;;
63370;SDS011;49504;48.336;14.472;2023-02-28T03:56:31;2.78;;;1.30;;
63370;SDS011;49504;48.336;14.472;2023-02-28T04:01:57;3.63;;;1.40;;
63370;SDS011;49504;48.336;14.472;2023-02-28T04:05:18;2.85;;;1.17;;
63370;SDS011;49504;48.336;14.472;2023-02-28T04:09:38;3.70;;;1.60;;
63370;SDS011;49504;48.336;14.472;2023-02-28T04:13:00;2.83;;;1.17;;
63370;SDS011;49504;48.336;14.472;2023-02-28T04:16:21;3.55;;;1.23;;
63370;SDS011;49504;48.336;14.472;2023-02-28T04:19:42;3.25;;;1.10;;
63370;SDS011;49504;48.336;14.472;2023-02-28T04:23:03;3.35;;;1.30;;
63370;SDS011;49504;48.336;14.472;2023-02-28T04:26:26;3.20;;;1.52;;
63370;SDS011;49504;48.336;14.472;2023-02-28T04:29:49;3.30;;;1.35;;
63370;SDS011;49504;48.336;14.472;2023-02-28T04:33:11;3.95;;;1.60;;
63370;SDS011;49504;48.336;14.472;2023-02-28T04:36:32;3.28;;;1.35;;
63370;SDS011;49504;48.336;14.472;2023-02-28T04:39:53;3.97;;;1.50;;
63370;SDS011;49504;48.336;14.472;2023-02-28T04:43:16;2.90;;;1.25;;
63370;SDS011;49504;48.336;14.472;2023-02-28T04:46:37;3.28;;;1.35;;
63370;SDS011;49504;48.336;14.472;2023-02-28T04:52:54;3.17;;;1.30;;
63370;SDS011;49504;48.336;14.472;2023-02-28T04:56:17;3.47;;;1.30;;
63370;SDS011;49504;48.336;14.472;2023-02-28T04:59:38;4.25;;;1.58;;
63370;SDS011;49504;48.336;14.472;2023-02-28T05:02:59;3.22;;;1.27;;
63370;SDS011;49504;48.336;14.472;2023-02-28T05:06:21;3.33;;;1.40;;
63370;SDS011;49504;48.336;14.472;2023-02-28T05:09:47;3.40;;;1.40;;
63370;SDS011;49504;48.336;14.472;2023-02-28T05:13:09;5.72;;;1.60;;
63370;SDS011;49504;48.336;14.472;2023-02-28T05:16:32;3.80;;;1.70;;
63370;SDS011;49504;48.336;14.472;2023-02-28T05:19:53;3.75;;;1.48;;
63370;SDS011;49504;48.336;14.472;2023-02-28T05:23:15;4.38;;;1.85;;
63370;SDS011;49504;48.336;14.472;2023-02-28T05:26:40;3.58;;;1.67;;
63370;SDS011;49504;48.336;14.472;2023-02-28T05:33:11;4.55;;;1.55;;
63370;SDS011;49504;48.336;14.472;2023-02-28T05:36:33;5.50;;;1.70;;
63370;SDS011;49504;48.336;14.472;2023-02-28T05:39:57;7.25;;;2.10;;
63370;SDS011;49504;48.336;14.472;2023-02-28T05:43:18;5.68;;;2.10;;
63370;SDS011;49504;48.336;14.472;2023-02-28T05:46:39;4.32;;;2.05;;
63370;SDS011;49504;48.336;14.472;2023-02-28T05:50:03;5.15;;;1.95;;
63370;SDS011;49504;48.336;14.472;2023-02-28T05:53:25;4.18;;;1.95;;
63370;SDS011;49504;48.336;14.472;2023-02-28T05:56:47;5.25;;;2.17;;
63370;SDS011;49504;48.336;14.472;2023-02-28T06:00:08;5.45;;;2.33;;
63370;SDS011;49504;48.336;14.472;2023-02-28T06:03:34;4.53;;;1.92;;
63370;SDS011;49504;48.336;14.472;2023-02-28T06:06:57;4.65;;;2.35;;
63370;SDS011;49504;48.336;14.472;2023-02-28T06:10:18;5.65;;;2.10;;
63370;SDS011;49504;48.336;14.472;2023-02-28T06:13:40;4.53;;;2.20;;
63370;SDS011;49504;48.336;14.472;2023-02-28T06:17:01;4.75;;;2.28;;
63370;SDS011;49504;48.336;14.472;2023-02-28T06:20:23;4.10;;;2.05;;
63370;SDS011;49504;48.336;14.472;2023-02-28T06:23:47;5.50;;;2.10;;
63370;SDS011;49504;48.336;14.472;2023-02-28T06:27:08;4.40;;;2.08;;
63370;SDS011;49504;48.336;14.472;2023-02-28T06:30:29;4.43;;;2.30;;
63370;SDS011;49504;48.336;14.472;2023-02-28T06:33:50;3.63;;;1.83;;
63370;SDS011;49504;48.336;14.472;2023-02-28T06:37:12;3.60;;;1.83;;
63370;SDS011;49504;48.336;14.472;2023-02-28T06:40:34;3.58;;;1.70;;
63370;SDS011;49504;48.336;14.472;2023-02-28T06:43:55;5.93;;;1.80;;
63370;SDS011;49504;48.336;14.472;2023-02-28T06:49:50;4.05;;;1.80;;
63370;SDS011;49504;48.336;14.472;2023-02-28T06:53:12;4.18;;;2.15;;
63370;SDS011;49504;48.336;14.472;2023-02-28T06:56:33;3.83;;;1.80;;
63370;SDS011;49504;48.336;14.472;2023-02-28T06:59:54;4.35;;;2.03;;
63370;SDS011;49504;48.336;14.472;2023-02-28T07:03:15;3.75;;;1.80;;
63370;SDS011;49504;48.336;14.472;2023-02-28T07:06:38;3.80;;;1.65;;
63370;SDS011;49504;48.336;14.472;2023-02-28T07:09:59;4.00;;;2.08;;
63370;SDS011;49504;48.336;14.472;2023-02-28T07:13:20;3.60;;;1.70;;
63370;SDS011;49504;48.336;14.472;2023-02-28T07:16:44;4.85;;;2.10;;
63370;SDS011;49504;48.336;14.472;2023-02-28T07:20:06;3.92;;;1.88;;
63370;SDS011;49504;48.336;14.472;2023-02-28T07:23:29;3.90;;;2.05;;
63370;SDS011;49504;48.336;14.472;2023-02-28T07:26:50;5.10;;;2.13;;
63370;SDS011;49504;48.336;14.472;2023-02-28T07:30:12;3.90;;;2.00;;
63370;SDS011;49504;48.336;14.472;2023-02-28T07:33:34;4.20;;;2.10;;
63370;SDS011;49504;48.336;14.472;2023-02-28T07:36:55;4.72;;;1.77;;
63370;SDS011;49504;48.336;14.472;2023-02-28T07:40:18;6.65;;;2.03;;
63370;SDS011;49504;48.336;14.472;2023-02-28T07:43:39;4.03;;;1.67;;
63370;SDS011;49504;48.336;14.472;2023-02-28T07:47:00;4.13;;;1.90;;
63370;SDS011;49504;48.336;14.472;2023-02-28T07:52:17;3.92;;;1.80;;
63370;SDS011;49504;48.336;14.472;2023-02-28T07:55:38;4.10;;;1.92;;
63370;SDS011;49504;48.336;14.472;2023-02-28T07:58:59;3.58;;;1.75;;
63370;SDS011;49504;48.336;14.472;2023-02-28T08:02:20;4.07;;;2.05;;
63370;SDS011;49504;48.336;14.472;2023-02-28T08:05:41;3.75;;;1.98;;
63370;SDS011;49504;48.336;14.472;2023-02-28T08:09:04;4.50;;;2.20;;
63370;SDS011;49504;48.336;14.472;2023-02-28T08:12:25;3.97;;;2.00;;
63370;SDS011;49504;48.336;14.472;2023-02-28T08:15:46;3.65;;;1.90;;
63370;SDS011;49504;48.336;14.472;2023-02-28T08:19:07;3.17;;;1.50;;
63370;SDS011;49504;48.336;14.472;2023-02-28T08:22:29;6.07;;;1.88;;
63370;SDS011;49504;48.336;14.472;2023-02-28T08:25:54;4.35;;;2.10;;
63370;SDS011;49504;48.336;14.472;2023-02-28T08:29:16;4.45;;;1.90;;
63370;SDS011;49504;48.336;14.472;2023-02-28T08:32:37;4.38;;;1.73;;
63370;SDS011;49504;48.336;14.472;2023-02-28T08:35:58;4.03;;;1.75;;
63370;SDS011;49504;48.336;14.472;2023-02-28T08:39:19;3.45;;;1.60;;
63370;SDS011;49504;48.336;14.472;2023-02-28T08:42:42;4.95;;;2.03;;
63370;SDS011;49504;48.336;14.472;2023-02-28T08:46:03;4.30;;;2.20;;
63370;SDS011;49504;48.336;14.472;2023-02-28T08:49:26;4.53;;;1.80;;
63370;SDS011;49504;48.336;14.472;2023-02-28T08:52:47;4.13;;;1.83;;
63370;SDS011;49504;48.336;14.472;2023-02-28T08:56:09;3.88;;;1.73;;
63370;SDS011;49504;48.336;14.472;2023-02-28T08:59:34;3.80;;;1.80;;
63370;SDS011;49504;48.336;14.472;2023-02-28T09:02:55;3.95;;;1.80;;
63370;SDS011;49504;48.336;14.472;2023-02-28T09:06:17;4.07;;;1.75;;
63370;SDS011;49504;48.336;14.472;2023-02-28T09:09:40;3.40;;;1.50;;
63370;SDS011;49504;48.336;14.472;2023-02-28T09:13:02;3.05;;;1.48;;
63370;SDS011;49504;48.336;14.472;2023-02-28T09:16:24;4.68;;;2.08;;
63370;SDS011;49504;48.336;14.472;2023-02-28T09:19:47;3.42;;;1.63;;
63370;SDS011;49504;48.336;14.472;2023-02-28T09:23:09;3.90;;;1.75;;
63370;SDS011;49504;48.336;14.472;2023-02-28T09:26:31;3.50;;;1.60;;
63370;SDS011;49504;48.336;14.472;2023-02-28T09:29:52;3.33;;;1.63;;
63370;SDS011;49504;48.336;14.472;2023-02-28T09:33:15;3.10;;;1.20;;
63370;SDS011;49504;48.336;14.472;2023-02-28T09:36:37;3.60;;;1.60;;
63370;SDS011;49504;48.336;14.472;2023-02-28T09:41:26;4.40;;;1.85;;
63370;SDS011;49504;48.336;14.472;2023-02-28T09:44:53;3.47;;;1.58;;
63370;SDS011;49504;48.336;14.472;2023-02-28T09:48:16;4.18;;;1.83;;
63370;SDS011;49504;48.336;14.472;2023-02-28T09:51:45;3.85;;;1.80;;
63370;SDS011;49504;48.336;14.472;2023-02-28T09:55:18;3.50;;;1.80;;
63370;SDS011;49504;48.336;14.472;2023-02-28T09:58:48;3.95;;;1.65;;
63370;SDS011;49504;48.336;14.472;2023-02-28T10:02:16;3.97;;;1.75;;
63370;SDS011;49504;48.336;14.472;2023-02-28T10:06:03;3.72;;;1.70;;
63370;SDS011;49504;48.336;14.472;2023-02-28T10:09:32;3.90;;;1.73;;
63370;SDS011;49504;48.336;14.472;2023-02-28T10:12:56;3.70;;;1.80;;
63370;SDS011;49504;48.336;14.472;2023-02-28T10:16:25;3.53;;;1.33;;
63370;SDS011;49504;48.336;14.472;2023-02-28T10:19:55;4.18;;;1.80;;
63370;SDS011;49504;48.336;14.472;2023-02-28T10:23:21;3.80;;;1.98;;
63370;SDS011;49504;48.336;14.472;2023-02-28T10:26:47;4.05;;;2.03;;
63370;SDS011;49504;48.336;14.472;2023-02-28T10:30:09;4.10;;;2.10;;
63370;SDS011;49504;48.336;14.472;2023-02-28T10:33:34;4.03;;;2.03;;
63370;SDS011;49504;48.336;14.472;2023-02-28T10:36:56;3.67;;;1.80;;
63370;SDS011;49504;48.336;14.472;2023-02-28T10:40:27;3.47;;;1.75;;
63370;SDS011;49504;48.336;14.472;2023-02-28T10:43:52;3.67;;;1.95;;
63370;SDS011;49504;48.336;14.472;2023-02-28T10:47:33;4.22;;;1.88;;
63370;SDS011;49504;48.336;14.472;2023-02-28T10:50:57;4.43;;;2.10;;
63370;SDS011;49504;48.336;14.472;2023-02-28T10:54:19;3.92;;;1.70;;
63370;SDS011;49504;48.336;14.472;2023-02-28T10:57:44;4.10;;;1.92;;
63370;SDS011;49504;48.336;14.472;2023-02-28T11:01:08;4.28;;;1.95;;
63370;SDS011;49504;48.336;14.472;2023-02-28T11:04:35;3.70;;;1.92;;
63370;SDS011;49504;48.336;14.472;2023-02-28T11:08:02;3.75;;;1.80;;
63370;SDS011;49504;48.336;14.472;2023-02-28T11:11:40;3.78;;;1.98;;
63370;SDS011;49504;48.336;14.472;2023-02-28T11:15:06;4.65;;;2.13;;
63370;SDS011;49504;48.336;14.472;2023-02-28T11:18:42;3.92;;;1.90;;
63370;SDS011;49504;48.336;14.472;2023-02-28T11:22:08;5.18;;;2.22;;
63370;SDS011;49504;48.336;14.472;2023-02-28T11:25:32;4.18;;;2.00;;
63370;SDS011;49504;48.336;14.472;2023-02-28T11:29:03;15.68;;;5.38;;
63370;SDS011;49504;48.336;14.472;2023-02-28T11:32:32;88.00;;;26.38;;
63370;SDS011;49504;48.336;14.472;2023-02-28T11:35:54;52.53;;;18.67;;
63370;SDS011;49504;48.336;14.472;2023-02-28T11:39:19;54.70;;;17.52;;
63370;SDS011;49504;48.336;14.472;2023-02-28T11:42:45;38.63;;;15.40;;
63370;SDS011;49504;48.336;14.472;2023-02-28T11:46:23;46.75;;;15.80;;
63370;SDS011;49504;48.336;14.472;2023-02-28T11:49:55;48.83;;;16.48;;
63370;SDS011;49504;48.336;14.472;2023-02-28T11:53:43;33.25;;;12.48;;
63370;SDS011;49504;48.336;14.472;2023-02-28T11:57:35;30.98;;;10.90;;
63370;SDS011;49504;48.336;14.472;2023-02-28T12:01:20;25.10;;;9.43;;
63370;SDS011;49504;48.336;14.472;2023-02-28T12:05:08;22.50;;;8.23;;
63370;SDS011;49504;48.336;14.472;2023-02-28T12:08:44;27.70;;;9.23;;
63370;SDS011;49504;48.336;14.472;2023-02-28T12:12:22;21.35;;;7.78;;
63370;SDS011;49504;48.336;14.472;2023-02-28T12:16:04;19.40;;;7.15;;
63370;SDS011;49504;48.336;14.472;2023-02-28T12:19:51;18.38;;;6.45;;
63370;SDS011;49504;48.336;14.472;2023-02-28T12:23:27;20.38;;;6.93;;
63370;SDS011;49504;48.336;14.472;2023-02-28T12:27:12;15.18;;;5.93;;
63370;SDS011;49504;48.336;14.472;2023-02-28T12:30:38;20.20;;;6.75;;
63370;SDS011;49504;48.336;14.472;2023-02-28T12:34:12;15.18;;;5.55;;
63370;SDS011;49504;48.336;14.472;2023-02-28T12:37:37;13.75;;;6.00;;
63370;SDS011;49504;48.336;14.472;2023-02-28T12:41:01;13.37;;;4.63;;
63370;SDS011;49504;48.336;14.472;2023-02-28T12:44:26;15.37;;;5.70;;
63370;SDS011;49504;48.336;14.472;2023-02-28T12:47:55;11.68;;;4.70;;
63370;SDS011;49504;48.336;14.472;2023-02-28T12:51:22;10.20;;;4.45;;
63370;SDS011;49504;48.336;14.472;2023-02-28T12:55:40;13.50;;;5.10;;
63370;SDS011;49504;48.336;14.472;2023-02-28T12:59:10;11.85;;;4.82;;
63370;SDS011;49504;48.336;14.472;2023-02-28T13:07:00;11.65;;;4.88;;
63370;SDS011;49504;48.336;14.472;2023-02-28T13:10:51;11.38;;;4.68;;
63370;SDS011;49504;48.336;14.472;2023-02-28T13:14:20;10.60;;;5.00;;
63370;SDS011;49504;48.336;14.472;2023-02-28T13:17:46;12.27;;;6.22;;
63370;SDS011;49504;48.336;14.472;2023-02-28T13:21:21;11.43;;;6.28;;
63370;SDS011;49504;48.336;14.472;2023-02-28T13:24:45;11.73;;;6.63;;
63370;SDS011;49504;48.336;14.472;2023-02-28T13:28:11;9.98;;;5.15;;
63370;SDS011;49504;48.336;14.472;2023-02-28T13:35:43;8.70;;;4.40;;
63370;SDS011;49504;48.336;14.472;2023-02-28T13:39:44;11.40;;;5.35;;
63370;SDS011;49504;48.336;14.472;2023-02-28T13:43:07;8.13;;;4.18;;
63370;SDS011;49504;48.336;14.472;2023-02-28T13:46:30;6.82;;;4.00;;
63370;SDS011;49504;48.336;14.472;2023-02-28T13:49:53;7.78;;;4.07;;
63370;SDS011;49504;48.336;14.472;2023-02-28T13:53:36;6.88;;;3.70;;
63370;SDS011;49504;48.336;14.472;2023-02-28T13:57:20;8.10;;;3.95;;
63370;SDS011;49504;48.336;14.472;2023-02-28T14:01:05;7.43;;;4.20;;
63370;SDS011;49504;48.336;14.472;2023-02-28T14:04:47;7.88;;;3.97;;
63370;SDS011;49504;48.336;14.472;2023-02-28T14:11:47;5.97;;;3.33;;
63370;SDS011;49504;48.336;14.472;2023-02-28T14:19:11;7.53;;;3.60;;
63370;SDS011;49504;48.336;14.472;2023-02-28T14:22:46;6.50;;;3.47;;
63370;SDS011;49504;48.336;14.472;2023-02-28T14:26:25;7.13;;;3.75;;
63370;SDS011;49504;48.336;14.472;2023-02-28T14:34:20;6.40;;;3.40;;
63370;SDS011;49504;48.336;14.472;2023-02-28T14:37:57;5.70;;;3.08;;
63370;SDS011;49504;48.336;14.472;2023-02-28T14:41:23;7.25;;;3.72;;
63370;SDS011;49504;48.336;14.472;2023-02-28T14:44:53;6.07;;;3.10;;
63370;SDS011;49504;48.336;14.472;2023-02-28T14:48:16;5.43;;;2.87;;
63370;SDS011;49504;48.336;14.472;2023-02-28T14:51:39;5.95;;;3.30;;
63370;SDS011;49504;48.336;14.472;2023-02-28T14:55:03;6.25;;;3.10;;
63370;SDS011;49504;48.336;14.472;2023-02-28T15:00:26;6.63;;;3.20;;
63370;SDS011;49504;48.336;14.472;2023-02-28T15:03:49;6.50;;;3.00;;
63370;SDS011;49504;48.336;14.472;2023-02-28T15:07:19;5.55;;;2.90;;
63370;SDS011;49504;48.336;14.472;2023-02-28T15:10:40;5.88;;;2.95;;
63370;SDS011;49504;48.336;14.472;2023-02-28T15:14:05;7.75;;;2.97;;
63370;SDS011;49504;48.336;14.472;2023-02-28T15:17:28;6.07;;;3.28;;
63370;SDS011;49504;48.336;14.472;2023-02-28T15:20:50;6.57;;;3.45;;
63370;SDS011;49504;48.336;14.472;2023-02-28T15:24:13;5.65;;;3.03;;
63370;SDS011;49504;48.336;14.472;2023-02-28T15:27:39;7.97;;;3.30;;
63370;SDS011;49504;48.336;14.472;2023-02-28T15:31:17;6.22;;;3.13;;
63370;SDS011;49504;48.336;14.472;2023-02-28T15:34:43;6.32;;;3.17;;
63370;SDS011;49504;48.336;14.472;2023-02-28T15:38:12;7.30;;;3.67;;
63370;SDS011;49504;48.336;14.472;2023-02-28T15:42:29;6.75;;;3.28;;
63370;SDS011;49504;48.336;14.472;2023-02-28T15:45:52;6.15;;;3.20;;
63370;SDS011;49504;48.336;14.472;2023-02-28T15:49:19;5.07;;;2.97;;
63370;SDS011;49504;48.336;14.472;2023-02-28T15:52:43;5.65;;;3.35;;
63370;SDS011;49504;48.336;14.472;2023-02-28T15:56:21;4.70;;;2.83;;
63370;SDS011;49504;48.336;14.472;2023-02-28T15:59:50;5.95;;;2.97;;
63370;SDS011;49504;48.336;14.472;2023-02-28T16:03:23;5.18;;;2.97;;
63370;SDS011;49504;48.336;14.472;2023-02-28T16:06:53;5.25;;;2.90;;
63370;SDS011;49504;48.336;14.472;2023-02-28T16:10:23;5.10;;;2.65;;
63370;SDS011;49504;48.336;14.472;2023-02-28T16:13:47;6.60;;;3.07;;
63370;SDS011;49504;48.336;14.472;2023-02-28T16:17:19;4.82;;;2.70;;
63370;SDS011;49504;48.336;14.472;2023-02-28T16:20:45;5.40;;;2.63;;
63370;SDS011;49504;48.336;14.472;2023-02-28T16:24:08;5.57;;;2.92;;
63370;SDS011;49504;48.336;14.472;2023-02-28T16:27:31;5.05;;;2.97;;
63370;SDS011;49504;48.336;14.472;2023-02-28T16:32:58;4.57;;;2.53;;
63370;SDS011;49504;48.336;14.472;2023-02-28T16:36:21;5.38;;;2.97;;
63370;SDS011;49504;48.336;14.472;2023-02-28T16:39:44;4.95;;;2.53;;
63370;SDS011;49504;48.336;14.472;2023-02-28T16:43:07;4.72;;;2.63;;
63370;SDS011;49504;48.336;14.472;2023-02-28T16:46:35;4.65;;;2.47;;
63370;SDS011;49504;48.336;14.472;2023-02-28T16:50:29;4.43;;;2.53;;
63370;SDS011;49504;48.336;14.472;2023-02-28T17:57:50;4.97;;;2.67;;
63370;SDS011;49504;48.336;14.472;2023-02-28T18:01:11;4.78;;;2.60;;
63370;SDS011;49504;48.336;14.472;2023-02-28T18:05:22;4.65;;;2.85;;
63370;SDS011;49504;48.336;14.472;2023-02-28T18:11:39;4.90;;;2.78;;
63370;SDS011;49504;48.336;14.472;2023-02-28T18:15:00;5.53;;;2.65;;
63370;SDS011;49504;48.336;14.472;2023-02-28T18:18:21;4.60;;;2.60;;
63370;SDS011;49504;48.336;14.472;2023-02-28T18:21:42;4.80;;;2.28;;
63370;SDS011;49504;48.336;14.472;2023-02-28T18:25:06;4.40;;;2.38;;
63370;SDS011;49504;48.336;14.472;2023-02-28T18:28:31;4.35;;;2.17;;
63370;SDS011;49504;48.336;14.472;2023-02-28T18:31:53;4.28;;;2.45;;
63370;SDS011;49504;48.336;14.472;2023-02-28T18:35:15;5.00;;;2.80;;
63370;SDS011;49504;48.336;14.472;2023-02-28T18:38:37;7.53;;;2.67;;
63370;SDS011;49504;48.336;14.472;2023-02-28T18:42:38;8.70;;;3.80;;
63370;SDS011;49504;48.336;14.472;2023-02-28T18:46:02;5.35;;;2.85;;
63370;SDS011;49504;48.336;14.472;2023-02-28T18:49:24;7.20;;;2.70;;
63370;SDS011;49504;48.336;14.472;2023-02-28T18:52:45;4.97;;;2.63;;
63370;SDS011;49504;48.336;14.472;2023-02-28T18:56:07;4.80;;;2.50;;
63370;SDS011;49504;48.336;14.472;2023-02-28T18:59:32;5.93;;;3.58;;
63370;SDS011;49504;48.336;14.472;2023-02-28T19:02:53;4.57;;;2.92;;
63370;SDS011;49504;48.336;14.472;2023-02-28T19:06:14;5.07;;;3.28;;
63370;SDS011;49504;48.336;14.472;2023-02-28T19:09:36;6.03;;;3.08;;
63370;SDS011;49504;48.336;14.472;2023-02-28T19:12:57;5.53;;;3.30;;
63370;SDS011;49504;48.336;14.472;2023-02-28T19:16:20;6.90;;;3.33;;
63370;SDS011;49504;48.336;14.472;2023-02-28T19:19:42;7.00;;;3.25;;
63370;SDS011;49504;48.336;14.472;2023-02-28T19:23:03;5.55;;;3.00;;
63370;SDS011;49504;48.336;14.472;2023-02-28T19:26:25;5.43;;;2.95;;
63370;SDS011;49504;48.336;14.472;2023-02-28T19:29:46;5.97;;;3.13;;
63370;SDS011;49504;48.336;14.472;2023-02-28T19:33:10;4.72;;;2.95;;
63370;SDS011;49504;48.336;14.472;2023-02-28T19:36:31;5.40;;;3.17;;
63370;SDS011;49504;48.336;14.472;2023-02-28T19:39:53;5.10;;;2.90;;
63370;SDS011;49504;48.336;14.472;2023-02-28T19:43:15;6.15;;;3.20;;
63370;SDS011;49504;48.336;14.472;2023-02-28T19:46:36;5.10;;;3.03;;
63370;SDS011;49504;48.336;14.472;2023-02-28T19:49:58;6.72;;;3.00;;
63370;SDS011;49504;48.336;14.472;2023-02-28T19:53:20;5.85;;;3.20;;
63370;SDS011;49504;48.336;14.472;2023-02-28T19:56:41;5.45;;;2.85;;
63370;SDS011;49504;48.336;14.472;2023-02-28T20:00:02;5.57;;;3.05;;
63370;SDS011;49504;48.336;14.472;2023-02-28T20:03:32;5.13;;;2.90;;
63370;SDS011;49504;48.336;14.472;2023-02-28T20:06:55;5.15;;;2.90;;
63370;SDS011;49504;48.336;14.472;2023-02-28T20:13:12;5.70;;;2.95;;
63370;SDS011;49504;48.336;14.472;2023-02-28T20:16:33;5.85;;;3.20;;
63370;SDS011;49504;48.336;14.472;2023-02-28T20:19:54;6.60;;;3.35;;
63370;SDS011;49504;48.336;14.472;2023-02-28T20:23:15;5.57;;;2.90;;
63370;SDS011;49504;48.336;14.472;2023-02-28T20:26:37;8.50;;;3.20;;
63370;SDS011;49504;48.336;14.472;2023-02-28T20:30:00;7.00;;;3.20;;
63370;SDS011;49504;48.336;14.472;2023-02-28T20:33:21;5.70;;;3.00;;
63370;SDS011;49504;48.336;14.472;2023-02-28T20:36:42;6.57;;;3.15;;
63370;SDS011;49504;48.336;14.472;2023-02-28T20:40:04;5.72;;;3.40;;
63370;SDS011;49504;48.336;14.472;2023-02-28T20:43:27;7.85;;;2.72;;
63370;SDS011;49504;48.336;14.472;2023-02-28T20:46:55;6.75;;;3.17;;
63370;SDS011;49504;48.336;14.472;2023-02-28T20:50:16;4.93;;;2.90;;
63370;SDS011;49504;48.336;14.472;2023-02-28T20:53:37;6.53;;;3.10;;
63370;SDS011;49504;48.336;14.472;2023-02-28T20:56:58;6.18;;;3.10;;
63370;SDS011;49504;48.336;14.472;2023-02-28T21:00:20;5.32;;;2.80;;
63370;SDS011;49504;48.336;14.472;2023-02-28T21:03:43;5.50;;;3.17;;
63370;SDS011;49504;48.336;14.472;2023-02-28T21:07:06;5.75;;;3.28;;
63370;SDS011;49504;48.336;14.472;2023-02-28T21:10:27;5.28;;;2.85;;
63370;SDS011;49504;48.336;14.472;2023-02-28T21:13:48;4.60;;;2.45;;
63370;SDS011;49504;48.336;14.472;2023-02-28T21:17:09;5.97;;;3.15;;
63370;SDS011;49504;48.336;14.472;2023-02-28T21:22:08;5.43;;;3.00;;
63370;SDS011;49504;48.336;14.472;2023-02-28T21:25:29;6.95;;;3.00;;
63370;SDS011;49504;48.336;14.472;2023-02-28T21:28:53;5.07;;;2.90;;
63370;SDS011;49504;48.336;14.472;2023-02-28T21:32:17;8.30;;;2.78;;
63370;SDS011;49504;48.336;14.472;2023-02-28T21:35:38;5.15;;;2.80;;
63370;SDS011;49504;48.336;14.472;2023-02-28T21:39:02;5.03;;;3.00;;
63370;SDS011;49504;48.336;14.472;2023-02-28T21:42:27;4.63;;;2.78;;
63370;SDS011;49504;48.336;14.472;2023-02-28T21:45:48;5.47;;;2.97;;
63370;SDS011;49504;48.336;14.472;2023-02-28T21:49:09;4.68;;;2.92;;
63370;SDS011;49504;48.336;14.472;2023-02-28T21:52:30;4.82;;;2.58;;
63370;SDS011;49504;48.336;14.472;2023-02-28T21:55:53;4.75;;;2.88;;
63370;SDS011;49504;48.336;14.472;2023-02-28T21:59:14;6.32;;;2.95;;
63370;SDS011;49504;48.336;14.472;2023-02-28T22:02:35;5.68;;;2.80;;
63370;SDS011;49504;48.336;14.472;2023-02-28T22:05:56;4.65;;;2.72;;
63370;SDS011;49504;48.336;14.472;2023-02-28T22:09:18;5.28;;;2.90;;
63370;SDS011;49504;48.336;14.472;2023-02-28T22:12:41;5.22;;;2.70;;
63370;SDS011;49504;48.336;14.472;2023-02-28T22:16:02;5.57;;;2.90;;
63370;SDS011;49504;48.336;14.472;2023-02-28T22:19:25;5.20;;;2.70;;
63370;SDS011;49504;48.336;14.472;2023-02-28T22:22:47;5.18;;;2.83;;
63370;SDS011;49504;48.336;14.472;2023-02-28T22:26:09;4.90;;;2.58;;